Terminal Aerodrome Forecast
Issued by NWS

Home | Current Version | Previous Version | Text Only | Print | Product List | Glossary On
Versions: 1 2 3 4 5 6 7 8 9 10 11 12 13 14 15 16 17
000
FTUS46 KPDT 210200 AAA
TAFRDM
TAF AMD
KRDM 210253Z 2103/2124 VRB06KT P6SM SCT050
     FM210600 16005KT P6SM SCT050
     FM211200 17007KT P6SM FEW050
     FM211800 24008G15KT P6SM FEW060=

USA.gov is the U.S. government's official web portal to all federal, state and local government web resources and services.